チューク諸島 の空港の天気 - METARとTAF

チューク国際空港 ( PTKK / TKK ) - ミクロネシア連邦 チューク諸島
飛行場実況気象(Metar)
観測時間06/15 05:52 +10 (06/14 19:52 UTC)
風向・風速不定 2m/s
視程10km以上
天気現象
少しの雲 雲底高度 430m
全天の4割程度の雲 雲底高度 3660m
全天を覆う雲 雲底高度 8530m
気温27.2℃
湿度88%
気圧1009.6hPa
METARPTKK 141952Z VRB03KT 15SM FEW014 SCT120 OVC280 27/25 A2981 RMK SLP096 T02720250
過去の天気等 Google飛行場航空写真 Wunderground天気予報

過去48時間のMETAR

飛行場予報(TAF)
発表時間: 6/15 03:26 +10 (6/14 17:26 UTC)
予報対象時間: 15日4時 +10 ~ 16日4時 +10
風向・風速不定 3m/s
視程10km以上
天気現象周辺でしゅう雨
少しの雲 雲底高度 610m
全天の4割程度の雲 雲底高度 1070m
PTKK 141726Z 1418/1518 VRB05KT P6SM VCSH FEW020 SCT035